Terminal Aerodrome Forecast
Issued by NWS Sterling, VA

Home | Current Version | Previous Version | Text Only | Print | Product List | Glossary On
Versions: 1 2 3 4 5 6 7 8 9 10 11 12 13 14 15 16 17 18 19 20 21 22
000
FTUS41 KLWX 312000 AAA
TAFDCA
TAF AMD
KDCA 312035Z 3121/0118 22006KT P6SM BKN050
     FM010200 16004KT P6SM BKN050
     FM011200 22005KT P6SM BKN050 OVC100
     FM011700 16006KT P6SM BKN050 BKN100=

USA.gov is the U.S. government's official web portal to all federal, state and local government web resources and services.